sensor_id;sensor_type;location;lat;lon;timestamp;P1;durP1;ratioP1;P2;durP2;ratioP2
29384;SDS011;16367;48.736;9.218;2024-01-30T00:02:02;9.80;;;3.70;;
29384;SDS011;16367;48.736;9.218;2024-01-30T00:04:06;7.32;;;3.20;;
29384;SDS011;16367;48.736;9.218;2024-01-30T00:06:08;7.32;;;3.45;;
29384;SDS011;16367;48.736;9.218;2024-01-30T00:08:11;6.97;;;3.08;;
29384;SDS011;16367;48.736;9.218;2024-01-30T00:10:14;8.45;;;3.72;;
29384;SDS011;16367;48.736;9.218;2024-01-30T00:12:17;8.43;;;3.65;;
29384;SDS011;16367;48.736;9.218;2024-01-30T00:14:20;7.47;;;3.83;;
29384;SDS011;16367;48.736;9.218;2024-01-30T00:16:23;8.10;;;3.38;;
29384;SDS011;16367;48.736;9.218;2024-01-30T00:18:26;7.22;;;3.38;;
29384;SDS011;16367;48.736;9.218;2024-01-30T00:20:31;7.97;;;3.60;;
29384;SDS011;16367;48.736;9.218;2024-01-30T00:22:33;8.10;;;3.55;;
29384;SDS011;16367;48.736;9.218;2024-01-30T00:24:36;7.35;;;3.30;;
29384;SDS011;16367;48.736;9.218;2024-01-30T00:26:39;9.80;;;4.03;;
29384;SDS011;16367;48.736;9.218;2024-01-30T00:28:43;8.10;;;3.50;;
29384;SDS011;16367;48.736;9.218;2024-01-30T00:30:46;9.05;;;3.78;;
29384;SDS011;16367;48.736;9.218;2024-01-30T00:32:49;9.10;;;4.30;;
29384;SDS011;16367;48.736;9.218;2024-01-30T00:34:52;8.52;;;3.97;;
29384;SDS011;16367;48.736;9.218;2024-01-30T00:36:56;10.93;;;4.53;;
29384;SDS011;16367;48.736;9.218;2024-01-30T00:38:59;9.73;;;4.07;;
29384;SDS011;16367;48.736;9.218;2024-01-30T00:41:01;10.18;;;4.28;;
29384;SDS011;16367;48.736;9.218;2024-01-30T00:43:04;8.38;;;3.95;;
29384;SDS011;16367;48.736;9.218;2024-01-30T00:45:11;9.38;;;3.90;;
29384;SDS011;16367;48.736;9.218;2024-01-30T00:47:13;7.85;;;3.60;;
29384;SDS011;16367;48.736;9.218;2024-01-30T00:49:16;9.13;;;4.35;;
29384;SDS011;16367;48.736;9.218;2024-01-30T00:51:19;9.23;;;3.95;;
29384;SDS011;16367;48.736;9.218;2024-01-30T00:53:23;7.95;;;4.45;;
29384;SDS011;16367;48.736;9.218;2024-01-30T00:55:26;9.35;;;4.70;;
29384;SDS011;16367;48.736;9.218;2024-01-30T00:57:28;8.88;;;3.78;;
29384;SDS011;16367;48.736;9.218;2024-01-30T00:59:31;8.85;;;4.47;;
29384;SDS011;16367;48.736;9.218;2024-01-30T01:01:33;9.10;;;4.45;;
29384;SDS011;16367;48.736;9.218;2024-01-30T01:03:36;7.95;;;4.03;;
29384;SDS011;16367;48.736;9.218;2024-01-30T01:05:39;9.40;;;4.45;;
29384;SDS011;16367;48.736;9.218;2024-01-30T01:07:41;7.93;;;3.85;;
29384;SDS011;16367;48.736;9.218;2024-01-30T01:09:46;8.38;;;4.05;;
29384;SDS011;16367;48.736;9.218;2024-01-30T01:11:49;10.32;;;4.45;;
29384;SDS011;16367;48.736;9.218;2024-01-30T01:13:52;9.20;;;4.20;;
29384;SDS011;16367;48.736;9.218;2024-01-30T01:15:54;9.95;;;4.45;;
29384;SDS011;16367;48.736;9.218;2024-01-30T01:17:57;9.43;;;4.03;;
29384;SDS011;16367;48.736;9.218;2024-01-30T01:20:01;11.50;;;4.75;;
29384;SDS011;16367;48.736;9.218;2024-01-30T01:22:03;9.60;;;4.80;;
29384;SDS011;16367;48.736;9.218;2024-01-30T01:24:06;9.88;;;4.53;;
29384;SDS011;16367;48.736;9.218;2024-01-30T01:26:10;10.80;;;4.93;;
29384;SDS011;16367;48.736;9.218;2024-01-30T01:28:13;11.73;;;4.78;;
29384;SDS011;16367;48.736;9.218;2024-01-30T01:30:15;12.40;;;4.38;;
29384;SDS011;16367;48.736;9.218;2024-01-30T01:32:22;8.90;;;4.85;;
29384;SDS011;16367;48.736;9.218;2024-01-30T01:34:25;10.70;;;4.43;;
29384;SDS011;16367;48.736;9.218;2024-01-30T01:36:31;10.35;;;4.63;;
29384;SDS011;16367;48.736;9.218;2024-01-30T01:38:34;9.25;;;4.38;;
29384;SDS011;16367;48.736;9.218;2024-01-30T01:40:36;7.50;;;4.30;;
29384;SDS011;16367;48.736;9.218;2024-01-30T01:42:42;8.98;;;3.95;;
29384;SDS011;16367;48.736;9.218;2024-01-30T01:44:45;9.40;;;4.30;;
29384;SDS011;16367;48.736;9.218;2024-01-30T01:46:47;8.32;;;4.15;;
29384;SDS011;16367;48.736;9.218;2024-01-30T01:48:51;9.10;;;4.35;;
29384;SDS011;16367;48.736;9.218;2024-01-30T01:50:54;8.60;;;4.32;;
29384;SDS011;16367;48.736;9.218;2024-01-30T01:52:57;9.05;;;4.38;;
29384;SDS011;16367;48.736;9.218;2024-01-30T01:55:00;12.25;;;4.45;;
29384;SDS011;16367;48.736;9.218;2024-01-30T01:57:02;9.15;;;4.20;;
29384;SDS011;16367;48.736;9.218;2024-01-30T01:59:08;9.30;;;3.72;;
29384;SDS011;16367;48.736;9.218;2024-01-30T02:01:11;12.45;;;5.38;;
29384;SDS011;16367;48.736;9.218;2024-01-30T02:03:15;11.88;;;4.38;;
29384;SDS011;16367;48.736;9.218;2024-01-30T02:05:20;11.07;;;4.57;;
29384;SDS011;16367;48.736;9.218;2024-01-30T02:07:23;11.50;;;5.20;;
29384;SDS011;16367;48.736;9.218;2024-01-30T02:09:26;8.90;;;5.38;;
29384;SDS011;16367;48.736;9.218;2024-01-30T02:11:28;10.23;;;5.03;;
29384;SDS011;16367;48.736;9.218;2024-01-30T02:13:31;13.68;;;5.10;;
29384;SDS011;16367;48.736;9.218;2024-01-30T02:15:35;10.35;;;5.50;;
29384;SDS011;16367;48.736;9.218;2024-01-30T02:17:38;11.70;;;5.15;;
29384;SDS011;16367;48.736;9.218;2024-01-30T02:19:40;11.65;;;5.80;;
29384;SDS011;16367;48.736;9.218;2024-01-30T02:21:45;12.35;;;5.20;;
29384;SDS011;16367;48.736;9.218;2024-01-30T02:23:48;10.07;;;4.68;;
29384;SDS011;16367;48.736;9.218;2024-01-30T02:25:52;10.50;;;5.20;;
29384;SDS011;16367;48.736;9.218;2024-01-30T02:27:54;11.55;;;5.65;;
29384;SDS011;16367;48.736;9.218;2024-01-30T02:29:57;9.52;;;4.90;;
29384;SDS011;16367;48.736;9.218;2024-01-30T02:32:00;12.55;;;5.40;;
29384;SDS011;16367;48.736;9.218;2024-01-30T02:34:03;12.15;;;5.32;;
29384;SDS011;16367;48.736;9.218;2024-01-30T02:36:06;14.43;;;5.72;;
29384;SDS011;16367;48.736;9.218;2024-01-30T02:38:10;11.88;;;5.43;;
29384;SDS011;16367;48.736;9.218;2024-01-30T02:40:13;11.23;;;5.47;;
29384;SDS011;16367;48.736;9.218;2024-01-30T02:42:16;10.95;;;5.10;;
29384;SDS011;16367;48.736;9.218;2024-01-30T02:44:19;15.40;;;5.78;;
29384;SDS011;16367;48.736;9.218;2024-01-30T02:46:21;11.65;;;5.28;;
29384;SDS011;16367;48.736;9.218;2024-01-30T02:48:24;9.40;;;5.00;;
29384;SDS011;16367;48.736;9.218;2024-01-30T02:50:27;12.40;;;5.28;;
29384;SDS011;16367;48.736;9.218;2024-01-30T02:52:30;10.20;;;5.00;;
29384;SDS011;16367;48.736;9.218;2024-01-30T02:54:34;12.77;;;5.70;;
29384;SDS011;16367;48.736;9.218;2024-01-30T02:56:37;11.10;;;5.50;;
29384;SDS011;16367;48.736;9.218;2024-01-30T02:58:40;12.13;;;5.68;;
29384;SDS011;16367;48.736;9.218;2024-01-30T03:00:43;9.50;;;5.20;;
29384;SDS011;16367;48.736;9.218;2024-01-30T03:02:45;12.73;;;5.32;;
29384;SDS011;16367;48.736;9.218;2024-01-30T03:04:48;11.45;;;5.18;;
29384;SDS011;16367;48.736;9.218;2024-01-30T03:06:51;13.13;;;6.13;;
29384;SDS011;16367;48.736;9.218;2024-01-30T03:08:54;11.05;;;4.90;;
29384;SDS011;16367;48.736;9.218;2024-01-30T03:10:58;11.52;;;5.60;;
29384;SDS011;16367;48.736;9.218;2024-01-30T03:13:01;9.52;;;5.18;;
29384;SDS011;16367;48.736;9.218;2024-01-30T03:15:04;16.08;;;5.40;;
29384;SDS011;16367;48.736;9.218;2024-01-30T03:17:07;11.60;;;5.22;;
29384;SDS011;16367;48.736;9.218;2024-01-30T03:19:10;10.35;;;6.05;;
29384;SDS011;16367;48.736;9.218;2024-01-30T03:21:13;10.68;;;5.30;;
29384;SDS011;16367;48.736;9.218;2024-01-30T03:23:16;10.52;;;5.07;;
29384;SDS011;16367;48.736;9.218;2024-01-30T03:25:19;12.07;;;5.25;;
29384;SDS011;16367;48.736;9.218;2024-01-30T03:27:23;12.90;;;5.65;;
29384;SDS011;16367;48.736;9.218;2024-01-30T03:29:26;12.60;;;5.82;;
29384;SDS011;16367;48.736;9.218;2024-01-30T03:31:28;11.55;;;5.75;;
29384;SDS011;16367;48.736;9.218;2024-01-30T03:33:32;11.05;;;5.10;;
29384;SDS011;16367;48.736;9.218;2024-01-30T03:35:35;10.68;;;5.63;;
29384;SDS011;16367;48.736;9.218;2024-01-30T03:37:38;13.52;;;6.10;;
29384;SDS011;16367;48.736;9.218;2024-01-30T03:39:41;10.35;;;5.28;;
29384;SDS011;16367;48.736;9.218;2024-01-30T03:41:44;12.50;;;5.72;;
29384;SDS011;16367;48.736;9.218;2024-01-30T03:43:48;12.73;;;4.90;;
29384;SDS011;16367;48.736;9.218;2024-01-30T03:45:50;12.63;;;4.93;;
29384;SDS011;16367;48.736;9.218;2024-01-30T03:47:54;13.35;;;5.85;;
29384;SDS011;16367;48.736;9.218;2024-01-30T03:49:56;11.95;;;5.10;;
29384;SDS011;16367;48.736;9.218;2024-01-30T03:51:58;12.10;;;6.22;;
29384;SDS011;16367;48.736;9.218;2024-01-30T03:54:01;11.48;;;5.55;;
29384;SDS011;16367;48.736;9.218;2024-01-30T03:56:03;15.05;;;6.45;;
29384;SDS011;16367;48.736;9.218;2024-01-30T03:58:06;13.10;;;5.68;;
29384;SDS011;16367;48.736;9.218;2024-01-30T04:00:11;10.60;;;5.60;;
29384;SDS011;16367;48.736;9.218;2024-01-30T04:02:15;13.15;;;5.55;;
29384;SDS011;16367;48.736;9.218;2024-01-30T04:04:19;10.98;;;5.68;;
29384;SDS011;16367;48.736;9.218;2024-01-30T04:06:22;10.82;;;5.28;;
29384;SDS011;16367;48.736;9.218;2024-01-30T04:08:25;12.45;;;5.82;;
29384;SDS011;16367;48.736;9.218;2024-01-30T04:10:28;11.93;;;6.30;;
29384;SDS011;16367;48.736;9.218;2024-01-30T04:12:30;12.52;;;6.03;;
29384;SDS011;16367;48.736;9.218;2024-01-30T04:14:32;12.57;;;5.75;;
29384;SDS011;16367;48.736;9.218;2024-01-30T04:16:38;11.73;;;5.63;;
29384;SDS011;16367;48.736;9.218;2024-01-30T04:18:40;11.35;;;5.80;;
29384;SDS011;16367;48.736;9.218;2024-01-30T04:20:43;13.02;;;6.18;;
29384;SDS011;16367;48.736;9.218;2024-01-30T04:22:47;11.48;;;6.20;;
29384;SDS011;16367;48.736;9.218;2024-01-30T04:24:49;13.02;;;5.95;;
29384;SDS011;16367;48.736;9.218;2024-01-30T04:26:52;14.13;;;6.10;;
29384;SDS011;16367;48.736;9.218;2024-01-30T04:28:55;11.18;;;5.63;;
29384;SDS011;16367;48.736;9.218;2024-01-30T04:30:57;10.70;;;5.63;;
29384;SDS011;16367;48.736;9.218;2024-01-30T04:33:02;10.68;;;5.35;;
29384;SDS011;16367;48.736;9.218;2024-01-30T04:35:05;10.02;;;5.68;;
29384;SDS011;16367;48.736;9.218;2024-01-30T04:37:12;13.45;;;5.88;;
29384;SDS011;16367;48.736;9.218;2024-01-30T04:39:15;11.90;;;5.55;;
29384;SDS011;16367;48.736;9.218;2024-01-30T04:41:18;13.15;;;5.35;;
29384;SDS011;16367;48.736;9.218;2024-01-30T04:43:21;10.85;;;5.25;;
29384;SDS011;16367;48.736;9.218;2024-01-30T04:45:24;13.45;;;5.20;;
29384;SDS011;16367;48.736;9.218;2024-01-30T04:47:26;14.48;;;6.18;;
29384;SDS011;16367;48.736;9.218;2024-01-30T04:49:30;13.07;;;5.70;;
29384;SDS011;16367;48.736;9.218;2024-01-30T04:51:33;15.07;;;5.93;;
29384;SDS011;16367;48.736;9.218;2024-01-30T04:53:36;13.30;;;5.72;;
29384;SDS011;16367;48.736;9.218;2024-01-30T04:55:41;12.52;;;5.97;;
29384;SDS011;16367;48.736;9.218;2024-01-30T04:57:42;13.68;;;5.60;;
29384;SDS011;16367;48.736;9.218;2024-01-30T04:59:45;11.65;;;5.55;;
29384;SDS011;16367;48.736;9.218;2024-01-30T05:01:47;12.88;;;6.22;;
29384;SDS011;16367;48.736;9.218;2024-01-30T05:03:50;16.85;;;6.32;;
29384;SDS011;16367;48.736;9.218;2024-01-30T05:05:54;14.88;;;6.13;;
29384;SDS011;16367;48.736;9.218;2024-01-30T05:07:57;11.82;;;6.45;;
29384;SDS011;16367;48.736;9.218;2024-01-30T05:10:00;14.68;;;5.85;;
29384;SDS011;16367;48.736;9.218;2024-01-30T05:12:06;17.10;;;6.63;;
29384;SDS011;16367;48.736;9.218;2024-01-30T05:14:09;16.15;;;6.40;;
29384;SDS011;16367;48.736;9.218;2024-01-30T05:16:13;14.38;;;6.72;;
29384;SDS011;16367;48.736;9.218;2024-01-30T05:18:16;12.57;;;6.18;;
29384;SDS011;16367;48.736;9.218;2024-01-30T05:20:19;13.63;;;6.07;;
29384;SDS011;16367;48.736;9.218;2024-01-30T05:22:23;12.30;;;6.20;;
29384;SDS011;16367;48.736;9.218;2024-01-30T05:24:26;15.02;;;6.60;;
29384;SDS011;16367;48.736;9.218;2024-01-30T05:26:29;15.50;;;6.80;;
29384;SDS011;16367;48.736;9.218;2024-01-30T05:28:32;13.00;;;6.60;;
29384;SDS011;16367;48.736;9.218;2024-01-30T05:30:35;17.95;;;8.85;;
29384;SDS011;16367;48.736;9.218;2024-01-30T05:32:37;14.50;;;6.75;;
29384;SDS011;16367;48.736;9.218;2024-01-30T05:34:40;12.82;;;6.80;;
29384;SDS011;16367;48.736;9.218;2024-01-30T05:36:43;15.63;;;7.03;;
29384;SDS011;16367;48.736;9.218;2024-01-30T05:38:48;13.70;;;6.57;;
29384;SDS011;16367;48.736;9.218;2024-01-30T05:40:50;14.70;;;7.28;;
29384;SDS011;16367;48.736;9.218;2024-01-30T05:42:53;15.45;;;6.68;;
29384;SDS011;16367;48.736;9.218;2024-01-30T05:44:56;16.02;;;6.88;;
29384;SDS011;16367;48.736;9.218;2024-01-30T05:46:59;18.80;;;6.80;;
29384;SDS011;16367;48.736;9.218;2024-01-30T05:49:02;12.40;;;6.32;;
29384;SDS011;16367;48.736;9.218;2024-01-30T05:51:04;11.82;;;6.18;;
29384;SDS011;16367;48.736;9.218;2024-01-30T05:53:09;12.90;;;6.10;;
29384;SDS011;16367;48.736;9.218;2024-01-30T05:55:13;17.15;;;7.30;;
29384;SDS011;16367;48.736;9.218;2024-01-30T05:57:16;13.30;;;6.38;;
29384;SDS011;16367;48.736;9.218;2024-01-30T05:59:19;14.13;;;7.18;;
29384;SDS011;16367;48.736;9.218;2024-01-30T06:01:22;13.82;;;6.82;;
29384;SDS011;16367;48.736;9.218;2024-01-30T06:03:25;13.85;;;6.75;;
29384;SDS011;16367;48.736;9.218;2024-01-30T06:05:28;14.55;;;6.57;;
29384;SDS011;16367;48.736;9.218;2024-01-30T06:07:31;13.65;;;6.65;;
29384;SDS011;16367;48.736;9.218;2024-01-30T06:09:37;10.90;;;5.90;;
29384;SDS011;16367;48.736;9.218;2024-01-30T06:11:41;16.10;;;6.70;;
29384;SDS011;16367;48.736;9.218;2024-01-30T06:13:44;12.13;;;6.40;;
29384;SDS011;16367;48.736;9.218;2024-01-30T06:15:48;14.65;;;6.43;;
29384;SDS011;16367;48.736;9.218;2024-01-30T06:17:51;13.55;;;6.93;;
29384;SDS011;16367;48.736;9.218;2024-01-30T06:19:53;15.15;;;6.47;;
29384;SDS011;16367;48.736;9.218;2024-01-30T06:21:56;11.13;;;6.45;;
29384;SDS011;16367;48.736;9.218;2024-01-30T06:23:59;13.73;;;6.30;;
29384;SDS011;16367;48.736;9.218;2024-01-30T06:26:02;15.40;;;6.70;;
29384;SDS011;16367;48.736;9.218;2024-01-30T06:28:06;11.98;;;6.57;;
29384;SDS011;16367;48.736;9.218;2024-01-30T06:30:10;13.73;;;5.90;;
29384;SDS011;16367;48.736;9.218;2024-01-30T06:32:13;13.48;;;7.18;;
29384;SDS011;16367;48.736;9.218;2024-01-30T06:34:15;14.73;;;7.30;;
29384;SDS011;16367;48.736;9.218;2024-01-30T06:36:18;11.82;;;6.20;;
29384;SDS011;16367;48.736;9.218;2024-01-30T06:38:20;14.38;;;6.53;;
29384;SDS011;16367;48.736;9.218;2024-01-30T06:40:23;11.70;;;6.40;;
29384;SDS011;16367;48.736;9.218;2024-01-30T06:42:26;12.68;;;6.32;;
29384;SDS011;16367;48.736;9.218;2024-01-30T06:44:29;12.50;;;6.53;;
29384;SDS011;16367;48.736;9.218;2024-01-30T06:46:33;12.73;;;6.00;;
29384;SDS011;16367;48.736;9.218;2024-01-30T06:48:38;14.38;;;5.80;;
29384;SDS011;16367;48.736;9.218;2024-01-30T06:50:42;15.10;;;6.88;;
29384;SDS011;16367;48.736;9.218;2024-01-30T06:52:44;12.90;;;6.75;;
29384;SDS011;16367;48.736;9.218;2024-01-30T06:54:47;15.15;;;7.22;;
29384;SDS011;16367;48.736;9.218;2024-01-30T06:56:50;13.32;;;6.55;;
29384;SDS011;16367;48.736;9.218;2024-01-30T06:58:53;14.52;;;8.20;;
29384;SDS011;16367;48.736;9.218;2024-01-30T07:00:57;13.85;;;7.05;;
29384;SDS011;16367;48.736;9.218;2024-01-30T07:03:00;14.20;;;7.70;;
29384;SDS011;16367;48.736;9.218;2024-01-30T07:05:03;16.08;;;7.75;;
29384;SDS011;16367;48.736;9.218;2024-01-30T07:07:06;13.85;;;6.78;;
29384;SDS011;16367;48.736;9.218;2024-01-30T07:09:14;14.88;;;8.15;;
29384;SDS011;16367;48.736;9.218;2024-01-30T07:11:18;11.85;;;7.00;;
29384;SDS011;16367;48.736;9.218;2024-01-30T07:13:21;15.40;;;7.00;;
29384;SDS011;16367;48.736;9.218;2024-01-30T07:15:24;14.73;;;7.28;;
29384;SDS011;16367;48.736;9.218;2024-01-30T07:17:28;12.55;;;6.47;;
29384;SDS011;16367;48.736;9.218;2024-01-30T07:19:30;13.73;;;6.60;;
29384;SDS011;16367;48.736;9.218;2024-01-30T07:21:33;16.92;;;6.30;;
29384;SDS011;16367;48.736;9.218;2024-01-30T07:23:36;11.43;;;6.18;;
29384;SDS011;16367;48.736;9.218;2024-01-30T07:25:40;11.40;;;5.85;;
29384;SDS011;16367;48.736;9.218;2024-01-30T07:27:43;10.48;;;5.78;;
29384;SDS011;16367;48.736;9.218;2024-01-30T07:29:46;14.52;;;7.55;;
29384;SDS011;16367;48.736;9.218;2024-01-30T07:31:48;14.73;;;7.20;;
29384;SDS011;16367;48.736;9.218;2024-01-30T07:33:52;12.70;;;6.45;;
29384;SDS011;16367;48.736;9.218;2024-01-30T07:35:56;15.65;;;7.53;;
29384;SDS011;16367;48.736;9.218;2024-01-30T07:37:59;14.60;;;6.35;;
29384;SDS011;16367;48.736;9.218;2024-01-30T07:40:02;16.08;;;7.43;;
29384;SDS011;16367;48.736;9.218;2024-01-30T07:42:06;16.83;;;7.07;;
29384;SDS011;16367;48.736;9.218;2024-01-30T07:44:08;12.73;;;6.65;;
29384;SDS011;16367;48.736;9.218;2024-01-30T07:46:11;16.02;;;7.65;;
29384;SDS011;16367;48.736;9.218;2024-01-30T07:48:14;17.75;;;7.00;;
29384;SDS011;16367;48.736;9.218;2024-01-30T07:50:17;12.02;;;6.55;;
29384;SDS011;16367;48.736;9.218;2024-01-30T07:52:20;14.05;;;6.95;;
29384;SDS011;16367;48.736;9.218;2024-01-30T07:54:23;14.98;;;6.78;;
29384;SDS011;16367;48.736;9.218;2024-01-30T07:56:26;13.80;;;5.90;;
29384;SDS011;16367;48.736;9.218;2024-01-30T07:58:29;12.32;;;6.30;;
29384;SDS011;16367;48.736;9.218;2024-01-30T08:00:31;13.68;;;6.10;;
29384;SDS011;16367;48.736;9.218;2024-01-30T08:02:34;16.90;;;7.80;;
29384;SDS011;16367;48.736;9.218;2024-01-30T08:04:37;13.77;;;7.57;;
29384;SDS011;16367;48.736;9.218;2024-01-30T08:06:41;13.20;;;6.35;;
29384;SDS011;16367;48.736;9.218;2024-01-30T08:08:44;12.82;;;5.80;;
29384;SDS011;16367;48.736;9.218;2024-01-30T08:10:48;16.85;;;6.82;;
29384;SDS011;16367;48.736;9.218;2024-01-30T08:12:51;11.93;;;6.28;;
29384;SDS011;16367;48.736;9.218;2024-01-30T08:14:53;14.75;;;6.38;;
29384;SDS011;16367;48.736;9.218;2024-01-30T08:16:56;13.73;;;5.90;;
29384;SDS011;16367;48.736;9.218;2024-01-30T08:18:59;12.55;;;5.65;;
29384;SDS011;16367;48.736;9.218;2024-01-30T08:21:02;11.88;;;5.53;;
29384;SDS011;16367;48.736;9.218;2024-01-30T08:23:07;12.10;;;5.57;;
29384;SDS011;16367;48.736;9.218;2024-01-30T08:25:10;10.15;;;5.80;;
29384;SDS011;16367;48.736;9.218;2024-01-30T08:27:13;11.90;;;5.20;;
29384;SDS011;16367;48.736;9.218;2024-01-30T08:29:16;13.10;;;5.88;;
29384;SDS011;16367;48.736;9.218;2024-01-30T08:31:19;9.30;;;4.53;;
29384;SDS011;16367;48.736;9.218;2024-01-30T08:33:21;12.02;;;5.60;;
29384;SDS011;16367;48.736;9.218;2024-01-30T08:35:24;10.55;;;5.63;;
29384;SDS011;16367;48.736;9.218;2024-01-30T08:37:27;12.00;;;5.40;;
29384;SDS011;16367;48.736;9.218;2024-01-30T08:39:31;11.50;;;5.32;;
29384;SDS011;16367;48.736;9.218;2024-01-30T08:41:34;11.85;;;5.60;;
29384;SDS011;16367;48.736;9.218;2024-01-30T08:43:37;7.85;;;4.28;;
29384;SDS011;16367;48.736;9.218;2024-01-30T08:45:39;12.65;;;4.80;;
29384;SDS011;16367;48.736;9.218;2024-01-30T08:47:42;9.20;;;4.60;;
29384;SDS011;16367;48.736;9.218;2024-01-30T08:49:45;11.88;;;5.00;;
29384;SDS011;16367;48.736;9.218;2024-01-30T08:51:48;8.20;;;4.50;;
29384;SDS011;16367;48.736;9.218;2024-01-30T08:53:51;11.02;;;4.53;;
29384;SDS011;16367;48.736;9.218;2024-01-30T08:55:56;8.85;;;4.13;;
29384;SDS011;16367;48.736;9.218;2024-01-30T08:58:00;7.32;;;3.80;;
29384;SDS011;16367;48.736;9.218;2024-01-30T09:00:05;7.32;;;3.63;;
29384;SDS011;16367;48.736;9.218;2024-01-30T09:02:10;8.00;;;4.05;;
29384;SDS011;16367;48.736;9.218;2024-01-30T09:04:14;9.27;;;3.88;;
29384;SDS011;16367;48.736;9.218;2024-01-30T09:06:17;8.20;;;3.90;;
29384;SDS011;16367;48.736;9.218;2024-01-30T09:08:19;10.23;;;4.32;;
29384;SDS011;16367;48.736;9.218;2024-01-30T09:10:22;8.20;;;4.38;;
29384;SDS011;16367;48.736;9.218;2024-01-30T09:12:26;9.82;;;4.85;;
29384;SDS011;16367;48.736;9.218;2024-01-30T09:14:29;10.77;;;4.43;;
29384;SDS011;16367;48.736;9.218;2024-01-30T09:16:32;10.48;;;5.25;;
29384;SDS011;16367;48.736;9.218;2024-01-30T09:18:35;10.90;;;5.43;;
29384;SDS011;16367;48.736;9.218;2024-01-30T09:20:38;8.63;;;4.55;;
29384;SDS011;16367;48.736;9.218;2024-01-30T09:22:41;11.60;;;5.38;;
29384;SDS011;16367;48.736;9.218;2024-01-30T09:24:43;10.38;;;5.22;;
29384;SDS011;16367;48.736;9.218;2024-01-30T09:26:46;10.48;;;4.55;;
29384;SDS011;16367;48.736;9.218;2024-01-30T09:28:50;8.82;;;4.32;;
29384;SDS011;16367;48.736;9.218;2024-01-30T09:30:53;9.07;;;4.68;;
29384;SDS011;16367;48.736;9.218;2024-01-30T09:32:56;10.80;;;4.97;;
29384;SDS011;16367;48.736;9.218;2024-01-30T09:34:59;9.32;;;4.53;;
29384;SDS011;16367;48.736;9.218;2024-01-30T09:37:02;9.73;;;4.70;;
29384;SDS011;16367;48.736;9.218;2024-01-30T09:39:05;7.85;;;4.38;;
29384;SDS011;16367;48.736;9.218;2024-01-30T09:41:09;7.80;;;4.00;;
29384;SDS011;16367;48.736;9.218;2024-01-30T09:43:13;7.50;;;3.95;;
29384;SDS011;16367;48.736;9.218;2024-01-30T09:45:24;7.93;;;4.30;;
29384;SDS011;16367;48.736;9.218;2024-01-30T09:47:30;7.93;;;4.30;;
29384;SDS011;16367;48.736;9.218;2024-01-30T09:49:32;8.40;;;4.30;;
29384;SDS011;16367;48.736;9.218;2024-01-30T09:51:37;8.60;;;4.10;;
29384;SDS011;16367;48.736;9.218;2024-01-30T09:53:41;8.27;;;4.20;;
29384;SDS011;16367;48.736;9.218;2024-01-30T09:55:45;8.85;;;4.35;;
29384;SDS011;16367;48.736;9.218;2024-01-30T09:57:49;8.88;;;3.88;;
29384;SDS011;16367;48.736;9.218;2024-01-30T09:59:52;7.80;;;4.22;;
29384;SDS011;16367;48.736;9.218;2024-01-30T10:01:56;10.50;;;4.50;;
29384;SDS011;16367;48.736;9.218;2024-01-30T10:04:00;8.35;;;4.38;;
29384;SDS011;16367;48.736;9.218;2024-01-30T10:06:03;9.25;;;4.75;;
29384;SDS011;16367;48.736;9.218;2024-01-30T10:08:07;9.00;;;4.25;;
29384;SDS011;16367;48.736;9.218;2024-01-30T10:10:10;11.68;;;4.30;;
29384;SDS011;16367;48.736;9.218;2024-01-30T10:12:13;10.15;;;4.40;;
29384;SDS011;16367;48.736;9.218;2024-01-30T10:14:16;10.00;;;4.60;;
29384;SDS011;16367;48.736;9.218;2024-01-30T10:16:19;10.27;;;5.15;;
29384;SDS011;16367;48.736;9.218;2024-01-30T10:18:23;9.13;;;4.15;;
29384;SDS011;16367;48.736;9.218;2024-01-30T10:20:26;8.60;;;4.10;;
29384;SDS011;16367;48.736;9.218;2024-01-30T10:22:29;10.23;;;4.53;;
29384;SDS011;16367;48.736;9.218;2024-01-30T10:24:33;8.70;;;3.95;;
29384;SDS011;16367;48.736;9.218;2024-01-30T10:26:37;10.88;;;4.75;;
29384;SDS011;16367;48.736;9.218;2024-01-30T10:28:40;9.48;;;3.88;;
29384;SDS011;16367;48.736;9.218;2024-01-30T10:30:43;7.82;;;3.80;;
29384;SDS011;16367;48.736;9.218;2024-01-30T10:32:46;8.60;;;3.50;;
29384;SDS011;16367;48.736;9.218;2024-01-30T10:34:50;8.00;;;3.45;;
29384;SDS011;16367;48.736;9.218;2024-01-30T10:36:57;7.10;;;3.50;;
29384;SDS011;16367;48.736;9.218;2024-01-30T10:39:01;7.65;;;3.17;;
29384;SDS011;16367;48.736;9.218;2024-01-30T10:41:07;8.02;;;3.78;;
29384;SDS011;16367;48.736;9.218;2024-01-30T10:43:15;6.95;;;3.65;;
29384;SDS011;16367;48.736;9.218;2024-01-30T10:45:19;9.60;;;3.58;;
29384;SDS011;16367;48.736;9.218;2024-01-30T10:47:25;8.55;;;4.03;;
29384;SDS011;16367;48.736;9.218;2024-01-30T10:49:28;7.43;;;4.07;;
29384;SDS011;16367;48.736;9.218;2024-01-30T10:51:33;8.35;;;4.57;;
29384;SDS011;16367;48.736;9.218;2024-01-30T10:53:37;9.95;;;4.50;;
29384;SDS011;16367;48.736;9.218;2024-01-30T10:55:41;9.50;;;4.38;;
29384;SDS011;16367;48.736;9.218;2024-01-30T10:57:44;7.85;;;3.92;;
29384;SDS011;16367;48.736;9.218;2024-01-30T10:59:47;8.27;;;3.63;;
29384;SDS011;16367;48.736;9.218;2024-01-30T11:01:49;10.40;;;3.97;;
29384;SDS011;16367;48.736;9.218;2024-01-30T11:03:53;8.18;;;4.00;;
29384;SDS011;16367;48.736;9.218;2024-01-30T11:05:59;9.25;;;4.00;;
29384;SDS011;16367;48.736;9.218;2024-01-30T11:08:11;11.93;;;3.92;;
29384;SDS011;16367;48.736;9.218;2024-01-30T11:10:15;7.93;;;3.72;;
29384;SDS011;16367;48.736;9.218;2024-01-30T11:12:21;8.45;;;3.67;;
29384;SDS011;16367;48.736;9.218;2024-01-30T11:14:24;9.27;;;3.83;;
29384;SDS011;16367;48.736;9.218;2024-01-30T11:16:30;10.32;;;4.38;;
29384;SDS011;16367;48.736;9.218;2024-01-30T11:18:35;10.10;;;3.80;;
29384;SDS011;16367;48.736;9.218;2024-01-30T11:20:38;7.63;;;4.22;;
29384;SDS011;16367;48.736;9.218;2024-01-30T11:22:50;8.82;;;3.72;;
29384;SDS011;16367;48.736;9.218;2024-01-30T11:24:55;10.13;;;4.05;;
29384;SDS011;16367;48.736;9.218;2024-01-30T11:26:57;9.50;;;3.67;;
29384;SDS011;16367;48.736;9.218;2024-01-30T11:29:03;10.13;;;4.13;;
29384;SDS011;16367;48.736;9.218;2024-01-30T11:31:06;8.20;;;3.90;;
29384;SDS011;16367;48.736;9.218;2024-01-30T11:33:10;9.07;;;4.00;;
29384;SDS011;16367;48.736;9.218;2024-01-30T11:35:14;7.80;;;3.88;;
29384;SDS011;16367;48.736;9.218;2024-01-30T11:37:17;7.80;;;4.05;;
29384;SDS011;16367;48.736;9.218;2024-01-30T11:39:24;8.27;;;3.63;;
29384;SDS011;16367;48.736;9.218;2024-01-30T11:41:29;9.70;;;4.70;;
29384;SDS011;16367;48.736;9.218;2024-01-30T11:43:31;9.27;;;4.10;;
29384;SDS011;16367;48.736;9.218;2024-01-30T11:45:36;9.98;;;4.40;;
29384;SDS011;16367;48.736;9.218;2024-01-30T11:47:41;10.05;;;5.03;;
29384;SDS011;16367;48.736;9.218;2024-01-30T11:49:45;7.00;;;4.22;;
29384;SDS011;16367;48.736;9.218;2024-01-30T11:51:48;9.18;;;4.70;;
29384;SDS011;16367;48.736;9.218;2024-01-30T11:53:51;11.95;;;4.35;;
29384;SDS011;16367;48.736;9.218;2024-01-30T11:55:53;11.68;;;4.53;;
29384;SDS011;16367;48.736;9.218;2024-01-30T11:57:57;9.80;;;4.55;;
29384;SDS011;16367;48.736;9.218;2024-01-30T12:00:01;9.07;;;4.30;;
29384;SDS011;16367;48.736;9.218;2024-01-30T12:02:09;9.13;;;4.68;;
29384;SDS011;16367;48.736;9.218;2024-01-30T12:04:18;10.88;;;3.70;;
29384;SDS011;16367;48.736;9.218;2024-01-30T12:06:21;9.20;;;3.92;;
29384;SDS011;16367;48.736;9.218;2024-01-30T12:08:23;11.07;;;4.28;;
29384;SDS011;16367;48.736;9.218;2024-01-30T12:10:26;10.57;;;4.70;;
29384;SDS011;16367;48.736;9.218;2024-01-30T12:12:29;9.90;;;4.72;;
29384;SDS011;16367;48.736;9.218;2024-01-30T12:14:33;10.90;;;4.78;;
29384;SDS011;16367;48.736;9.218;2024-01-30T12:16:35;11.75;;;4.65;;